Latest Weather Observations for Coldstream

IDV60901

Issued at 3:11 pm EST Wednesday 28 September 2016 (issued every 10 minutes, with the page automatically refreshed every 10 minutes)

About weather observations | Map of Melbourne area stations | Latest observations for Melbourne area | Other Formats
Station Details ID: 086383 Name: COLDSTREAM Lat: -37.72 Lon: 145.41 Height: 83.0 m
Data from the previous 72 hours. | See also: Recent months at Coldstream
Date/Time
EST
Temp
°C
App
Temp
°C
Dew
Point
°C
Rel
Hum
%
Delta-T
°C
Wind Press
QNH
hPa
Press
MSL
hPa
Rain since
9am
mm
Dir  Spd
km/h
Gust
km/h
Spd
kts
Gust
kts
28/03:00pm 17.5 13.9 8.4 55 4.7 N 17 24 9 13 1004.5 1004.5 0.2
28/02:30pm 18.0 14.3 9.6 58 4.4 N 19 30 10 16 1005.1 1005.1 0.2
28/02:00pm 17.7 13.8 9.3 58 4.4 N 20 28 11 15 1006.0 1006.0 0.2
28/01:30pm 17.2 14.0 8.4 56 4.5 NNE 15 22 8 12 1006.6 1006.6 0.2
28/01:00pm 16.9 12.9 8.1 56 4.5 NNE 19 26 10 14 1008.1 1008.1 0.2
28/12:30pm 16.1 12.1 8.3 60 4.0 N 19 32 10 17 1009.2 1009.3 0.0
28/12:00pm 16.0 11.7 9.2 64 3.5 N 22 32 12 17 1010.3 1010.4 0.0
28/11:30am 15.1 10.1 8.1 63 3.5 NNW 24 35 13 19 1011.1 1011.2 0.0
28/11:00am 14.9 10.0 8.6 66 3.2 NNW 24 35 13 19 1011.7 1011.8 0.0
28/10:30am 14.5 9.5 8.2 66 3.2 NNW 24 35 13 19 1011.9 1012.0 0.0
28/10:00am 14.4 11.3 8.8 69 2.8 N 15 24 8 13 1012.1 1012.2 0.0
28/09:30am 13.7 11.4 9.0 73 2.4 NNE 11 17 6 9 1012.2 1012.3 0.0
28/09:00am 13.0 11.1 9.1 77 2.0 NE 9 15 5 8 1012.7 1012.8 4.0
28/08:30am 11.8 9.8 8.8 82 1.5 NE 9 15 5 8 1013.0 1013.1 4.0
28/08:00am 10.2 9.5 9.9 98 0.2 ENE 4 7 2 4 1013.2 1013.3 4.0
28/07:30am 8.4 8.0 8.3 99 0.0 CALM 0 0 0 0 1013.4 1013.5 4.0
28/07:00am 5.7 4.3 5.6 99 0.0 SSE 2 7 1 4 1013.5 1013.6 4.0
28/06:30am 3.7 2.3 3.6 99 0.0 CALM 0 0 0 0 1013.4 1013.5 4.0
28/06:00am 3.4 2.0 3.3 99 0.0 CALM 0 0 0 0 1013.3 1013.4 4.0
28/05:30am 3.7 1.9 3.6 99 0.0 SE 2 6 1 3 1013.1 1013.2 4.0
28/05:00am 3.8 1.3 3.7 99 0.0 ESE 6 9 3 5 1013.1 1013.2 4.0
28/04:30am 3.9 2.5 3.8 99 0.0 CALM 0 11 0 6 1013.1 1013.2 4.0
28/04:00am 4.0 2.7 3.9 99 0.0 CALM 0 6 0 3 1013.0 1013.1 4.0
28/03:30am 4.2 2.1 4.1 99 0.0 SE 4 7 2 4 1013.0 1013.1 4.0
28/03:00am 4.2 1.6 4.1 99 0.0 E 7 9 4 5 1012.8 1012.9 4.0
28/02:30am 5.1 2.6 5.0 99 0.0 ESE 7 9 4 5 1012.9 1013.0 4.0
28/02:00am 4.7 2.1 4.4 98 0.1 ESE 7 9 4 5 1013.1 1013.2 4.0
28/01:30am 5.9 3.2 5.6 98 0.1 E 9 13 5 7 1013.1 1013.2 4.0
28/01:00am 6.7 4.2 6.6 99 0.0 E 9 13 5 7 1013.3 1013.4 4.0
28/12:30am 6.7 3.8 6.4 98 0.1 E 11 13 6 7 1013.3 1013.4 4.0
28/12:00am 6.7 4.2 6.6 99 0.0 E 9 11 5 6 1013.2 1013.3 4.0
 
Date/Time
EST
Temp
°C
App
Temp
°C
Dew
Point
°C
Rel
Hum
%
Delta-T
°C
Wind Press
QNH
hPa
Press
MSL
hPa
Rain since
9am
mm
Dir  Spd
km/h
Gust
km/h
Spd
kts
Gust
kts
27/11:30pm 6.6 4.4 6.3 98 0.1 ESE 7 11 4 6 1013.3 1013.4 4.0
27/11:00pm 7.3 4.9 7.2 99 0.0 E 9 13 5 7 1013.5 1013.6 4.0
27/10:30pm 7.0 4.6 6.9 99 0.0 ESE 9 9 5 5 1013.5 1013.6 4.0
27/10:00pm 6.6 5.4 6.5 99 0.0 E 2 9 1 5 1013.5 1013.6 4.0
27/09:30pm 6.4 5.5 6.1 98 0.1 CALM 0 0 0 0 1013.7 1013.8 4.0
27/09:00pm 6.6 5.8 6.3 98 0.1 CALM 0 0 0 0 1013.7 1013.8 4.0
27/08:30pm 7.1 6.3 6.7 97 0.2 CALM 0 0 0 0 1013.6 1013.7 4.0
27/08:00pm 8.3 7.4 7.7 96 0.3 ESE 2 6 1 3 1013.4 1013.5 4.0
27/07:30pm 8.4 7.8 7.3 93 0.5 CALM 0 0 0 0 1013.5 1013.6 4.0
27/07:00pm 10.0 8.5 8.6 91 0.7 NNE 6 9 3 5 1013.4 1013.5 4.0
27/06:30pm 11.2 9.9 9.1 87 1.1 NE 6 7 3 4 1013.1 1013.2 4.0
27/06:00pm 12.4 12.0 8.1 75 2.1 CALM 0 0 0 0 1013.0 1013.1 4.0
27/05:30pm 12.7 12.1 8.8 77 2.0 WSW 2 7 1 4 1012.8 1012.9 4.0
27/05:00pm 13.2 11.7 9.3 77 2.0 SW 7 13 4 7 1012.6 1012.7 4.0
27/04:30pm 13.1 11.0 9.7 80 1.7 SW 11 19 6 10 1012.2 1012.3 4.0
27/04:00pm 12.5 10.5 10.2 86 1.2 WSW 11 15 6 8 1012.2 1012.3 4.0
27/03:30pm 11.3 9.3 10.0 92 0.7 SW 11 24 6 13 1012.2 1012.3 4.0
27/03:00pm 11.7 9.1 9.4 86 1.2 W 13 20 7 11 1012.0 1012.1 0.8
27/02:30pm 12.2 10.6 10.3 88 1.0 WNW 9 13 5 7 1011.8 1011.9 0.4
27/02:00pm 11.6 8.7 9.7 88 1.0 WNW 15 22 8 12 1012.0 1012.1 0.4
27/01:30pm 14.2 11.8 6.8 61 3.6 NW 9 15 5 8 1011.6 1011.7 0.2
27/01:00pm 14.4 11.9 6.7 60 3.8 WNW 9 15 5 8 1011.7 1011.8 0.0
27/12:30pm 14.1 11.6 6.7 61 3.6 WNW 9 19 5 10 1011.8 1011.9 0.0
27/12:00pm 13.1 10.9 6.2 63 3.3 WNW 7 15 4 8 1011.9 1012.0 0.0
27/11:30am 13.5 11.1 7.1 65 3.1 NW 9 13 5 7 1011.9 1012.0 0.0
27/11:00am 13.3 10.0 6.2 62 3.4 WNW 13 22 7 12 1012.1 1012.2 0.0
27/10:30am 11.8 9.2 6.3 69 2.6 WNW 9 15 5 8 1012.0 1012.1 0.0
27/10:00am 11.7 10.2 6.8 72 2.3 NW 4 9 2 5 1012.0 1012.1 0.0
27/09:30am 10.9 9.7 6.5 74 2.1 NNW 2 9 1 5 1012.0 1012.1 0.0
27/09:00am 10.7 9.1 6.3 74 2.1 NW 4 9 2 5 1012.0 1012.1 14.2
27/08:30am 9.7 7.4 5.9 77 1.8 NW 7 11 4 6 1011.8 1011.9 14.2
27/08:00am 9.2 7.6 6.5 83 1.3 NE 4 9 2 5 1011.5 1011.6 14.2
27/07:30am 7.6 7.0 7.5 99 0.0 CALM 0 0 0 0 1011.2 1011.3 14.2
27/07:00am 5.4 4.3 5.3 99 0.0 CALM 0 0 0 0 1011.1 1011.2 14.2
27/06:30am 4.3 3.0 4.2 99 0.0 CALM 0 0 0 0 1010.8 1010.9 14.2
27/06:00am 4.2 2.9 3.9 98 0.1 CALM 0 0 0 0 1010.2 1010.3 14.2
27/05:30am 5.7 4.7 5.4 98 0.1 CALM 0 0 0 0 1010.1 1010.2 14.2
27/05:00am 6.7 5.5 6.6 99 0.0 ENE 2 6 1 3 1009.9 1010.0 14.2
27/04:30am 7.0 5.9 6.9 99 0.0 N 2 7 1 4 1009.8 1009.9 14.2
27/04:00am 7.0 6.3 6.9 99 0.0 CALM 0 0 0 0 1009.6 1009.7 14.2
27/03:30am 7.0 5.5 6.9 99 0.0 WNW 4 7 2 4 1009.4 1009.5 14.2
27/03:00am 6.7 5.9 6.6 99 0.0 CALM 0 0 0 0 1009.5 1009.6 14.0
27/02:30am 6.6 5.8 6.5 99 0.0 CALM 0 0 0 0 1009.5 1009.6 14.0
27/02:00am 6.8 6.0 6.5 98 0.1 CALM 0 0 0 0 1009.6 1009.7 14.0
27/01:30am 6.8 5.2 6.5 98 0.1 ENE 4 9 2 5 1009.6 1009.7 14.0
27/01:00am 6.8 6.0 6.5 98 0.1 CALM 0 0 0 0 1009.8 1009.9 13.8
27/12:30am 6.8 6.0 6.5 98 0.1 CALM 0 0 0 0 1010.0 1010.1 13.6
27/12:00am 6.8 4.6 6.4 97 0.2 NNE 7 11 4 6 1010.0 1010.1 13.6
 
Date/Time
EST
Temp
°C
App
Temp
°C
Dew
Point
°C
Rel
Hum
%
Delta-T
°C
Wind Press
QNH
hPa
Press
MSL
hPa
Rain since
9am
mm
Dir  Spd
km/h
Gust
km/h
Spd
kts
Gust
kts
26/11:30pm 7.3 4.9 7.0 98 0.1 NE 9 15 5 8 1010.1 1010.2 13.6
26/11:00pm 7.5 4.7 7.1 97 0.2 E 11 17 6 9 1010.7 1010.8 13.6
26/10:30pm 7.6 3.1 7.0 96 0.3 WSW 20 32 11 17 1011.4 1011.5 11.4
26/10:00pm 7.9 2.3 7.1 95 0.4 SW 26 39 14 21 1010.7 1010.8 8.4
26/09:49pm 8.7 4.5 8.1 96 0.3 WSW 20 37 11 20 1010.6 1010.7 7.0
26/09:30pm 9.8 7.9 9.2 96 0.3 W 9 13 5 7 1010.6 1010.7 5.0
26/09:00pm 9.6 8.6 8.8 95 0.4 NE 4 7 2 4 1009.7 1009.8 1.8
26/08:30pm 9.7 6.9 8.6 93 0.5 ENE 13 15 7 8 1010.0 1010.1 1.8
26/08:00pm 10.5 9.9 8.9 90 0.8 SSW 2 6 1 3 1010.2 1010.3 1.8
26/07:30pm 10.9 9.9 8.7 86 1.1 WNW 4 9 2 5 1010.4 1010.5 1.0
26/07:00pm 11.3 10.4 7.6 78 1.8 E 2 6 1 3 1009.6 1009.7 0.0
26/06:30pm 11.9 10.0 6.8 71 2.4 N 6 7 3 4 1009.5 1009.6 0.0
26/06:00pm 12.0 9.9 6.7 70 2.5 N 7 11 4 6 1009.4 1009.5 0.0
26/05:30pm 12.6 8.9 6.4 66 3.0 N 15 20 8 11 1009.2 1009.3 0.0
26/05:00pm 14.2 10.8 7.7 65 3.2 N 15 20 8 11 1009.1 1009.2 0.0
26/04:30pm 13.9 9.3 6.5 61 3.6 N 20 39 11 21 1009.2 1009.3 0.0
26/04:00pm 14.9 10.5 4.6 50 4.8 NNW 17 28 9 15 1009.2 1009.3 0.0
26/03:30pm 15.5 11.4 6.2 54 4.5 NW 17 28 9 15 1009.4 1009.5 0.0
26/03:00pm 14.9 13.3 6.5 57 4.1 N 4 6 2 3 1009.6 1009.7 0.0
26/02:30pm 14.1 11.5 7.6 65 3.2 ENE 11 15 6 8 1009.9 1010.0 0.0
26/02:00pm 13.7 11.0 7.2 65 3.2 E 11 13 6 7 1010.1 1010.2 0.0
26/01:30pm 13.4 10.7 7.4 67 2.9 S 11 20 6 11 1010.5 1010.6 0.0
26/01:00pm 13.9 10.7 6.7 62 3.5 N 13 20 7 11 1010.8 1010.9 0.0
26/12:30pm 14.9 11.5 7.5 61 3.7 NNE 15 26 8 14 1011.2 1011.3 0.0
26/12:00pm 14.6 10.5 6.2 57 4.1 NW 17 26 9 14 1011.6 1011.7 0.0
26/11:30am 14.3 12.1 5.4 55 4.2 W 6 17 3 9 1011.7 1011.8 0.0
26/11:00am 14.8 11.8 5.9 55 4.3 NNE 11 17 6 9 1012.1 1012.2 0.0
26/10:30am 13.2 11.3 6.8 65 3.1 NNW 6 11 3 6 1012.6 1012.7 0.0
26/10:00am 13.9 11.5 7.2 64 3.3 N 9 13 5 7 1012.7 1012.8 0.0
26/09:30am 12.8 10.0 6.8 67 2.9 NNW 11 20 6 11 1013.0 1013.1 0.0
26/09:00am 11.8 8.5 6.5 70 2.5 N 13 20 7 11 1013.1 1013.2 0.0
26/08:30am 11.0 9.0 7.3 78 1.8 NE 7 11 4 6 1013.3 1013.4 0.0
26/08:00am 9.4 8.1 7.7 89 0.8 NE 4 11 2 6 1013.5 1013.6 0.0
26/07:30am 8.2 7.6 7.6 96 0.3 CALM 0 0 0 0 1013.6 1013.7 0.0
26/07:00am 7.4 6.7 6.8 96 0.3 CALM 0 0 0 0 1013.7 1013.8 0.0
26/06:30am 7.0 5.8 6.6 97 0.2 E 2 7 1 4 1013.6 1013.7 0.0
26/06:00am 7.0 6.2 6.6 97 0.2 CALM 0 2 0 1 1013.4 1013.5 0.0
26/05:30am 6.8 4.8 6.4 97 0.2 SE 6 9 3 5 1013.2 1013.3 0.0
26/05:00am 6.8 5.2 6.2 96 0.3 WSW 4 7 2 4 1013.3 1013.4 0.0
26/04:30am 6.7 3.8 6.6 99 0.0 SE 11 17 6 9 1012.9 1013.0 0.0
26/04:00am 6.3 4.3 6.2 99 0.0 SE 6 11 3 6 1012.9 1013.0 0.0
26/03:30am 6.0 5.1 5.9 99 0.0 CALM 0 0 0 0 1012.9 1013.0 0.0
26/03:00am 5.1 4.0 5.0 99 0.0 CALM 0 0 0 0 1012.9 1013.0 0.0
26/02:30am 4.2 2.9 4.1 99 0.0 CALM 0 0 0 0 1013.4 1013.5 0.0
26/02:00am 3.4 2.0 3.3 99 0.0 CALM 0 6 0 3 1013.6 1013.7 0.0
26/01:30am 3.4 1.9 3.1 98 0.1 CALM 0 0 0 0 1013.8 1013.9 0.0
26/01:00am 4.0 2.6 3.7 98 0.1 CALM 0 0 0 0 1013.9 1014.0 0.0
26/12:30am 4.2 2.9 3.9 98 0.1 CALM 0 0 0 0 1014.2 1014.2 0.0
26/12:00am 5.0 3.8 4.6 97 0.2 CALM 0 0 0 0 1014.3 1014.3 0.0
 
Date/Time
EST
Temp
°C
App
Temp
°C
Dew
Point
°C
Rel
Hum
%
Delta-T
°C
Wind Press
QNH
hPa
Press
MSL
hPa
Rain since
9am
mm
Dir  Spd
km/h
Gust
km/h
Spd
kts
Gust
kts
25/11:30pm 4.8 3.2 4.4 97 0.2 SE 2 7 1 4 1014.3 1014.3 0.0
25/11:00pm 5.1 3.9 4.5 96 0.3 CALM 0 0 0 0 1014.5 1014.5 0.0
25/10:30pm 5.1 3.8 4.2 94 0.4 CALM 0 0 0 0 1014.8 1014.8 0.0
25/10:00pm 6.7 5.7 5.5 92 0.5 CALM 0 0 0 0 1014.8 1014.8 0.0
25/09:30pm 7.6 6.7 6.2 91 0.6 CALM 0 0 0 0 1014.7 1014.7 0.0
25/09:00pm 7.8 7.0 6.4 91 0.6 CALM 0 0 0 0 1014.6 1014.6 0.0
25/08:30pm 8.1 6.1 6.2 88 0.9 SSE 6 9 3 5 1014.3 1014.3 0.0
25/08:00pm 8.8 6.8 6.3 84 1.2 S 6 9 3 5 1014.1 1014.1 0.0
25/07:30pm 8.7 7.1 6.5 86 1.0 SSE 4 7 2 4 1013.5 1013.6 0.0
25/07:00pm 9.1 7.1 6.4 83 1.3 SSE 6 7 3 4 1012.8 1012.9 0.0
25/06:30pm 8.5 7.4 5.3 80 1.4 CALM 0 0 0 0 1012.4 1012.5 0.0
25/06:00pm 11.0 9.2 5.5 69 2.5 SSE 4 7 2 4 1012.0 1012.1 0.0
25/05:30pm 11.8 9.9 4.8 62 3.2 SSW 4 9 2 5 1012.0 1012.1 0.0
25/05:00pm 13.0 10.1 4.4 56 3.9 SW 9 15 5 8 1011.7 1011.8 0.0
25/04:30pm 13.7 9.4 5.1 56 4.0 SW 17 28 9 15 1011.5 1011.6 0.0
25/04:00pm 13.5 9.9 5.2 57 3.9 SSW 13 19 7 10 1011.5 1011.6 0.0
25/03:30pm 14.0 10.3 6.1 59 3.8 SW 15 24 8 13 1011.5 1011.6 0.0

Latest Capital City Observations: Canberra | Sydney | Melbourne | Brisbane | Adelaide | Perth | Hobart | Darwin

Other Formats:

Comma delimited format used in spreadsheet applications
http://www.bom.gov.au/fwo/IDV60901/IDV60901.94864.axf

JavaScript Object Notation format (JSON) in row-major order
http://www.bom.gov.au/fwo/IDV60901/IDV60901.94864.json